sensor_id;sensor_type;location;lat;lon;timestamp;temperature;humidity
2130;DHT22;1071;52.544;13.374;2023-08-17T00:00:46;22.40;99.90
2130;DHT22;1071;52.544;13.374;2023-08-17T00:03:13;22.40;99.90
2130;DHT22;1071;52.544;13.374;2023-08-17T00:05:43;22.40;99.90
2130;DHT22;1071;52.544;13.374;2023-08-17T00:08:11;22.40;99.90
2130;DHT22;1071;52.544;13.374;2023-08-17T00:10:56;22.40;99.90
2130;DHT22;1071;52.544;13.374;2023-08-17T00:13:27;22.40;99.90
2130;DHT22;1071;52.544;13.374;2023-08-17T00:15:56;22.40;99.90
2130;DHT22;1071;52.544;13.374;2023-08-17T00:18:31;22.30;99.90
2130;DHT22;1071;52.544;13.374;2023-08-17T00:23:40;22.20;99.90
2130;DHT22;1071;52.544;13.374;2023-08-17T00:26:09;22.20;99.90
2130;DHT22;1071;52.544;13.374;2023-08-17T00:28:36;22.20;99.90
2130;DHT22;1071;52.544;13.374;2023-08-17T00:31:03;22.10;99.90
2130;DHT22;1071;52.544;13.374;2023-08-17T00:33:30;22.00;99.90
2130;DHT22;1071;52.544;13.374;2023-08-17T00:36:00;22.00;99.90
2130;DHT22;1071;52.544;13.374;2023-08-17T00:38:27;22.00;99.90
2130;DHT22;1071;52.544;13.374;2023-08-17T00:40:55;22.00;99.90
2130;DHT22;1071;52.544;13.374;2023-08-17T00:43:24;21.90;99.90
2130;DHT22;1071;52.544;13.374;2023-08-17T00:45:51;21.90;99.90
2130;DHT22;1071;52.544;13.374;2023-08-17T00:48:18;21.90;99.90
2130;DHT22;1071;52.544;13.374;2023-08-17T00:50:47;21.80;99.90
2130;DHT22;1071;52.544;13.374;2023-08-17T00:53:15;21.80;99.90
2130;DHT22;1071;52.544;13.374;2023-08-17T00:55:43;21.80;99.90
2130;DHT22;1071;52.544;13.374;2023-08-17T00:58:10;21.80;99.90
2130;DHT22;1071;52.544;13.374;2023-08-17T01:00:39;21.80;99.90
2130;DHT22;1071;52.544;13.374;2023-08-17T01:03:07;21.80;99.90
2130;DHT22;1071;52.544;13.374;2023-08-17T01:05:34;21.80;99.90
2130;DHT22;1071;52.544;13.374;2023-08-17T01:08:02;21.80;99.90
2130;DHT22;1071;52.544;13.374;2023-08-17T01:10:36;21.70;99.90
2130;DHT22;1071;52.544;13.374;2023-08-17T01:13:09;21.70;99.90
2130;DHT22;1071;52.544;13.374;2023-08-17T01:15:40;21.60;99.90
2130;DHT22;1071;52.544;13.374;2023-08-17T01:18:14;21.60;99.90
2130;DHT22;1071;52.544;13.374;2023-08-17T01:20:46;21.60;99.90
2130;DHT22;1071;52.544;13.374;2023-08-17T01:23:14;21.60;99.90
2130;DHT22;1071;52.544;13.374;2023-08-17T01:25:42;21.50;99.90
2130;DHT22;1071;52.544;13.374;2023-08-17T01:28:08;21.50;99.90
2130;DHT22;1071;52.544;13.374;2023-08-17T01:30:45;21.50;99.90
2130;DHT22;1071;52.544;13.374;2023-08-17T01:33:23;21.50;99.90
2130;DHT22;1071;52.544;13.374;2023-08-17T01:35:56;21.50;99.90
2130;DHT22;1071;52.544;13.374;2023-08-17T01:38:29;21.50;99.90
2130;DHT22;1071;52.544;13.374;2023-08-17T01:40:57;21.40;99.90
2130;DHT22;1071;52.544;13.374;2023-08-17T01:43:25;21.40;99.90
2130;DHT22;1071;52.544;13.374;2023-08-17T01:45:52;21.40;99.90
2130;DHT22;1071;52.544;13.374;2023-08-17T01:48:19;21.40;99.90
2130;DHT22;1071;52.544;13.374;2023-08-17T01:50:46;21.40;99.90
2130;DHT22;1071;52.544;13.374;2023-08-17T01:53:13;21.30;99.90
2130;DHT22;1071;52.544;13.374;2023-08-17T01:55:42;21.30;99.90
2130;DHT22;1071;52.544;13.374;2023-08-17T01:58:09;21.30;99.90
2130;DHT22;1071;52.544;13.374;2023-08-17T02:00:39;21.20;99.90
2130;DHT22;1071;52.544;13.374;2023-08-17T02:03:06;21.20;99.90
2130;DHT22;1071;52.544;13.374;2023-08-17T02:05:33;21.20;99.90
2130;DHT22;1071;52.544;13.374;2023-08-17T02:08:00;21.20;99.90
2130;DHT22;1071;52.544;13.374;2023-08-17T02:10:27;21.20;99.90
2130;DHT22;1071;52.544;13.374;2023-08-17T02:12:55;21.20;99.90
2130;DHT22;1071;52.544;13.374;2023-08-17T02:15:22;21.10;99.90
2130;DHT22;1071;52.544;13.374;2023-08-17T02:17:49;21.10;99.90
2130;DHT22;1071;52.544;13.374;2023-08-17T02:20:16;21.20;99.90
2130;DHT22;1071;52.544;13.374;2023-08-17T02:22:43;21.10;99.90
2130;DHT22;1071;52.544;13.374;2023-08-17T02:25:11;21.10;99.90
2130;DHT22;1071;52.544;13.374;2023-08-17T02:27:38;21.10;99.90
2130;DHT22;1071;52.544;13.374;2023-08-17T02:30:08;21.10;99.90
2130;DHT22;1071;52.544;13.374;2023-08-17T02:32:35;21.10;99.90
2130;DHT22;1071;52.544;13.374;2023-08-17T02:35:02;21.10;99.90
2130;DHT22;1071;52.544;13.374;2023-08-17T02:37:32;21.10;99.90
2130;DHT22;1071;52.544;13.374;2023-08-17T02:40:00;21.10;99.90
2130;DHT22;1071;52.544;13.374;2023-08-17T02:42:26;21.10;99.90
2130;DHT22;1071;52.544;13.374;2023-08-17T02:44:53;21.00;99.90
2130;DHT22;1071;52.544;13.374;2023-08-17T02:47:22;20.90;99.90
2130;DHT22;1071;52.544;13.374;2023-08-17T02:49:48;20.90;99.90
2130;DHT22;1071;52.544;13.374;2023-08-17T02:52:15;20.90;99.90
2130;DHT22;1071;52.544;13.374;2023-08-17T02:54:42;20.80;99.90
2130;DHT22;1071;52.544;13.374;2023-08-17T02:57:10;20.80;99.90
2130;DHT22;1071;52.544;13.374;2023-08-17T02:59:37;20.80;99.90
2130;DHT22;1071;52.544;13.374;2023-08-17T03:02:04;20.80;99.90
2130;DHT22;1071;52.544;13.374;2023-08-17T03:04:33;20.80;99.90
2130;DHT22;1071;52.544;13.374;2023-08-17T03:07:00;20.70;99.90
2130;DHT22;1071;52.544;13.374;2023-08-17T03:09:26;20.70;99.90
2130;DHT22;1071;52.544;13.374;2023-08-17T03:11:53;20.70;99.90
2130;DHT22;1071;52.544;13.374;2023-08-17T03:14:20;20.70;99.90
2130;DHT22;1071;52.544;13.374;2023-08-17T03:16:47;20.70;99.90
2130;DHT22;1071;52.544;13.374;2023-08-17T03:19:14;20.70;99.90
2130;DHT22;1071;52.544;13.374;2023-08-17T03:21:43;20.70;99.90
2130;DHT22;1071;52.544;13.374;2023-08-17T03:24:10;20.70;99.90
2130;DHT22;1071;52.544;13.374;2023-08-17T03:26:37;20.70;99.90
2130;DHT22;1071;52.544;13.374;2023-08-17T03:29:05;20.70;99.90
2130;DHT22;1071;52.544;13.374;2023-08-17T03:31:33;20.70;99.90
2130;DHT22;1071;52.544;13.374;2023-08-17T03:34:01;20.70;99.90
2130;DHT22;1071;52.544;13.374;2023-08-17T03:36:27;20.70;99.90
2130;DHT22;1071;52.544;13.374;2023-08-17T03:38:56;20.70;99.90
2130;DHT22;1071;52.544;13.374;2023-08-17T03:41:23;20.70;99.90
2130;DHT22;1071;52.544;13.374;2023-08-17T03:43:53;20.70;99.90
2130;DHT22;1071;52.544;13.374;2023-08-17T03:46:20;20.70;99.90
2130;DHT22;1071;52.544;13.374;2023-08-17T03:48:47;20.70;99.90
2130;DHT22;1071;52.544;13.374;2023-08-17T03:51:14;20.70;99.90
2130;DHT22;1071;52.544;13.374;2023-08-17T03:53:41;20.70;99.90
2130;DHT22;1071;52.544;13.374;2023-08-17T03:56:09;20.70;99.90
2130;DHT22;1071;52.544;13.374;2023-08-17T03:58:36;20.70;99.90
2130;DHT22;1071;52.544;13.374;2023-08-17T04:01:03;20.70;99.90
2130;DHT22;1071;52.544;13.374;2023-08-17T04:03:35;20.70;99.90
2130;DHT22;1071;52.544;13.374;2023-08-17T04:06:04;20.70;99.90
2130;DHT22;1071;52.544;13.374;2023-08-17T04:08:32;20.70;99.90
2130;DHT22;1071;52.544;13.374;2023-08-17T04:11:01;20.60;99.90
2130;DHT22;1071;52.544;13.374;2023-08-17T04:13:30;20.60;99.90
2130;DHT22;1071;52.544;13.374;2023-08-17T04:15:56;20.60;99.90
2130;DHT22;1071;52.544;13.374;2023-08-17T04:18:23;20.60;99.90
2130;DHT22;1071;52.544;13.374;2023-08-17T04:20:50;20.60;99.90
2130;DHT22;1071;52.544;13.374;2023-08-17T04:23:17;20.60;99.90
2130;DHT22;1071;52.544;13.374;2023-08-17T04:25:47;20.60;99.90
2130;DHT22;1071;52.544;13.374;2023-08-17T04:28:14;20.60;99.90
2130;DHT22;1071;52.544;13.374;2023-08-17T04:30:43;20.50;99.90
2130;DHT22;1071;52.544;13.374;2023-08-17T04:33:10;20.60;99.90
2130;DHT22;1071;52.544;13.374;2023-08-17T04:35:38;20.60;99.90
2130;DHT22;1071;52.544;13.374;2023-08-17T04:38:05;20.70;99.90
2130;DHT22;1071;52.544;13.374;2023-08-17T04:40:33;20.70;99.90
2130;DHT22;1071;52.544;13.374;2023-08-17T04:43:00;20.70;99.90
2130;DHT22;1071;52.544;13.374;2023-08-17T04:45:27;20.70;99.90
2130;DHT22;1071;52.544;13.374;2023-08-17T04:47:55;20.70;99.90
2130;DHT22;1071;52.544;13.374;2023-08-17T04:50:22;20.70;99.90
2130;DHT22;1071;52.544;13.374;2023-08-17T04:52:49;20.70;99.90
2130;DHT22;1071;52.544;13.374;2023-08-17T04:55:16;20.80;99.90
2130;DHT22;1071;52.544;13.374;2023-08-17T04:57:45;20.80;99.90
2130;DHT22;1071;52.544;13.374;2023-08-17T05:00:13;20.80;99.90
2130;DHT22;1071;52.544;13.374;2023-08-17T05:02:41;20.80;99.90
2130;DHT22;1071;52.544;13.374;2023-08-17T05:05:10;20.80;99.90
2130;DHT22;1071;52.544;13.374;2023-08-17T05:07:37;20.90;99.90
2130;DHT22;1071;52.544;13.374;2023-08-17T05:10:04;20.90;99.90
2130;DHT22;1071;52.544;13.374;2023-08-17T05:12:32;21.00;99.90
2130;DHT22;1071;52.544;13.374;2023-08-17T05:14:58;21.10;99.90
2130;DHT22;1071;52.544;13.374;2023-08-17T05:17:25;21.00;99.90
2130;DHT22;1071;52.544;13.374;2023-08-17T05:19:52;21.00;99.90
2130;DHT22;1071;52.544;13.374;2023-08-17T05:22:21;21.10;99.90
2130;DHT22;1071;52.544;13.374;2023-08-17T05:24:48;21.10;99.90
2130;DHT22;1071;52.544;13.374;2023-08-17T05:27:15;21.10;99.90
2130;DHT22;1071;52.544;13.374;2023-08-17T05:29:42;21.10;99.90
2130;DHT22;1071;52.544;13.374;2023-08-17T05:32:09;21.20;99.90
2130;DHT22;1071;52.544;13.374;2023-08-17T05:34:36;21.20;99.90
2130;DHT22;1071;52.544;13.374;2023-08-17T05:37:09;21.20;99.90
2130;DHT22;1071;52.544;13.374;2023-08-17T05:39:37;21.20;99.90
2130;DHT22;1071;52.544;13.374;2023-08-17T05:42:05;21.30;99.90
2130;DHT22;1071;52.544;13.374;2023-08-17T05:44:32;21.30;99.90
2130;DHT22;1071;52.544;13.374;2023-08-17T05:46:59;21.30;99.90
2130;DHT22;1071;52.544;13.374;2023-08-17T05:49:26;21.40;99.90
2130;DHT22;1071;52.544;13.374;2023-08-17T05:51:53;21.40;99.90
2130;DHT22;1071;52.544;13.374;2023-08-17T05:54:20;21.40;99.90
2130;DHT22;1071;52.544;13.374;2023-08-17T05:56:48;21.50;99.90
2130;DHT22;1071;52.544;13.374;2023-08-17T05:59:18;21.50;99.90
2130;DHT22;1071;52.544;13.374;2023-08-17T06:01:45;21.60;99.90
2130;DHT22;1071;52.544;13.374;2023-08-17T06:04:12;21.60;99.90
2130;DHT22;1071;52.544;13.374;2023-08-17T06:06:39;21.70;99.90
2130;DHT22;1071;52.544;13.374;2023-08-17T06:09:06;21.80;99.90
2130;DHT22;1071;52.544;13.374;2023-08-17T06:11:34;21.80;99.90
2130;DHT22;1071;52.544;13.374;2023-08-17T06:14:07;21.80;99.90
2130;DHT22;1071;52.544;13.374;2023-08-17T06:16:34;21.90;99.90
2130;DHT22;1071;52.544;13.374;2023-08-17T06:19:02;21.90;99.90
2130;DHT22;1071;52.544;13.374;2023-08-17T06:21:29;22.00;99.90
2130;DHT22;1071;52.544;13.374;2023-08-17T06:23:57;22.00;99.90
2130;DHT22;1071;52.544;13.374;2023-08-17T06:26:24;22.10;99.90
2130;DHT22;1071;52.544;13.374;2023-08-17T06:28:50;22.10;99.90
2130;DHT22;1071;52.544;13.374;2023-08-17T06:31:19;22.20;99.90
2130;DHT22;1071;52.544;13.374;2023-08-17T06:33:46;22.20;99.90
2130;DHT22;1071;52.544;13.374;2023-08-17T06:36:13;22.30;99.90
2130;DHT22;1071;52.544;13.374;2023-08-17T06:38:42;22.30;99.90
2130;DHT22;1071;52.544;13.374;2023-08-17T06:41:09;22.40;99.90
2130;DHT22;1071;52.544;13.374;2023-08-17T06:43:36;22.40;99.90
2130;DHT22;1071;52.544;13.374;2023-08-17T06:46:03;22.50;99.90
2130;DHT22;1071;52.544;13.374;2023-08-17T06:48:31;22.50;99.90
2130;DHT22;1071;52.544;13.374;2023-08-17T06:50:58;22.60;99.90
2130;DHT22;1071;52.544;13.374;2023-08-17T06:53:25;22.60;99.90
2130;DHT22;1071;52.544;13.374;2023-08-17T06:55:53;22.70;99.90
2130;DHT22;1071;52.544;13.374;2023-08-17T06:58:22;22.80;99.90
2130;DHT22;1071;52.544;13.374;2023-08-17T07:00:53;22.80;99.90
2130;DHT22;1071;52.544;13.374;2023-08-17T07:03:20;22.80;99.90
2130;DHT22;1071;52.544;13.374;2023-08-17T07:05:48;22.80;99.90
2130;DHT22;1071;52.544;13.374;2023-08-17T07:08:15;22.90;99.90
2130;DHT22;1071;52.544;13.374;2023-08-17T07:10:43;22.90;99.90
2130;DHT22;1071;52.544;13.374;2023-08-17T07:13:10;22.90;99.90
2130;DHT22;1071;52.544;13.374;2023-08-17T07:15:37;22.90;99.90
2130;DHT22;1071;52.544;13.374;2023-08-17T07:18:04;23.00;99.90
2130;DHT22;1071;52.544;13.374;2023-08-17T07:20:31;23.00;99.90
2130;DHT22;1071;52.544;13.374;2023-08-17T07:23:01;23.00;99.90
2130;DHT22;1071;52.544;13.374;2023-08-17T07:25:28;23.10;99.90
2130;DHT22;1071;52.544;13.374;2023-08-17T07:27:56;23.10;99.90
2130;DHT22;1071;52.544;13.374;2023-08-17T07:30:23;23.10;99.90
2130;DHT22;1071;52.544;13.374;2023-08-17T07:32:50;23.10;99.90
2130;DHT22;1071;52.544;13.374;2023-08-17T07:35:17;23.10;99.90
2130;DHT22;1071;52.544;13.374;2023-08-17T07:37:46;23.10;99.90
2130;DHT22;1071;52.544;13.374;2023-08-17T07:40:15;23.20;99.90
2130;DHT22;1071;52.544;13.374;2023-08-17T07:42:42;23.20;99.90
2130;DHT22;1071;52.544;13.374;2023-08-17T07:45:10;23.30;99.90
2130;DHT22;1071;52.544;13.374;2023-08-17T07:47:37;23.30;99.90
2130;DHT22;1071;52.544;13.374;2023-08-17T07:50:06;23.30;99.90
2130;DHT22;1071;52.544;13.374;2023-08-17T07:52:42;23.30;99.90
2130;DHT22;1071;52.544;13.374;2023-08-17T07:55:26;23.30;99.90
2130;DHT22;1071;52.544;13.374;2023-08-17T07:58:05;23.30;99.90
2130;DHT22;1071;52.544;13.374;2023-08-17T08:00:34;23.30;99.90
2130;DHT22;1071;52.544;13.374;2023-08-17T08:03:01;23.40;99.90
2130;DHT22;1071;52.544;13.374;2023-08-17T08:05:28;23.40;99.90
2130;DHT22;1071;52.544;13.374;2023-08-17T08:07:55;23.40;99.90
2130;DHT22;1071;52.544;13.374;2023-08-17T08:10:24;23.50;99.90
2130;DHT22;1071;52.544;13.374;2023-08-17T08:12:51;23.50;99.90
2130;DHT22;1071;52.544;13.374;2023-08-17T08:15:19;23.60;99.90
2130;DHT22;1071;52.544;13.374;2023-08-17T08:17:46;23.60;99.90
2130;DHT22;1071;52.544;13.374;2023-08-17T08:20:13;23.60;99.90
2130;DHT22;1071;52.544;13.374;2023-08-17T08:22:40;23.70;99.90
2130;DHT22;1071;52.544;13.374;2023-08-17T08:25:08;23.70;99.90
2130;DHT22;1071;52.544;13.374;2023-08-17T08:27:36;23.80;99.90
2130;DHT22;1071;52.544;13.374;2023-08-17T08:30:05;23.90;99.90
2130;DHT22;1071;52.544;13.374;2023-08-17T08:32:32;23.90;99.90
2130;DHT22;1071;52.544;13.374;2023-08-17T08:35:00;24.00;99.90
2130;DHT22;1071;52.544;13.374;2023-08-17T08:37:27;24.10;99.90
2130;DHT22;1071;52.544;13.374;2023-08-17T08:39:54;24.20;99.90
2130;DHT22;1071;52.544;13.374;2023-08-17T08:42:29;24.20;99.90
2130;DHT22;1071;52.544;13.374;2023-08-17T08:44:58;24.20;99.90
2130;DHT22;1071;52.544;13.374;2023-08-17T08:47:26;24.20;99.90
2130;DHT22;1071;52.544;13.374;2023-08-17T08:49:59;24.20;99.90
2130;DHT22;1071;52.544;13.374;2023-08-17T08:52:56;24.20;99.90
2130;DHT22;1071;52.544;13.374;2023-08-17T08:55:54;24.10;99.90
2130;DHT22;1071;52.544;13.374;2023-08-17T08:58:22;24.00;99.90
2130;DHT22;1071;52.544;13.374;2023-08-17T09:00:52;24.00;99.90
2130;DHT22;1071;52.544;13.374;2023-08-17T09:03:20;24.00;99.90
2130;DHT22;1071;52.544;13.374;2023-08-17T09:05:48;24.00;99.90
2130;DHT22;1071;52.544;13.374;2023-08-17T09:08:20;23.90;99.90
2130;DHT22;1071;52.544;13.374;2023-08-17T09:10:47;23.90;99.90
2130;DHT22;1071;52.544;13.374;2023-08-17T09:13:14;23.90;99.90
2130;DHT22;1071;52.544;13.374;2023-08-17T09:15:41;23.90;99.90
2130;DHT22;1071;52.544;13.374;2023-08-17T09:18:10;23.80;99.90
2130;DHT22;1071;52.544;13.374;2023-08-17T09:20:38;23.80;99.90
2130;DHT22;1071;52.544;13.374;2023-08-17T09:23:10;23.80;99.90
2130;DHT22;1071;52.544;13.374;2023-08-17T09:25:49;23.70;99.90
2130;DHT22;1071;52.544;13.374;2023-08-17T09:28:18;23.70;99.90
2130;DHT22;1071;52.544;13.374;2023-08-17T09:30:50;23.80;99.90
2130;DHT22;1071;52.544;13.374;2023-08-17T09:33:20;23.80;99.90
2130;DHT22;1071;52.544;13.374;2023-08-17T09:35:52;23.90;99.90
2130;DHT22;1071;52.544;13.374;2023-08-17T09:38:19;23.90;99.90
2130;DHT22;1071;52.544;13.374;2023-08-17T09:40:47;24.00;99.90
2130;DHT22;1071;52.544;13.374;2023-08-17T09:43:14;24.00;99.90
2130;DHT22;1071;52.544;13.374;2023-08-17T09:45:42;24.20;99.90
2130;DHT22;1071;52.544;13.374;2023-08-17T09:48:10;24.20;99.90
2130;DHT22;1071;52.544;13.374;2023-08-17T09:50:38;24.20;99.90
2130;DHT22;1071;52.544;13.374;2023-08-17T09:53:05;24.20;99.90
2130;DHT22;1071;52.544;13.374;2023-08-17T09:55:32;24.30;99.90
2130;DHT22;1071;52.544;13.374;2023-08-17T09:58:00;24.30;99.90
2130;DHT22;1071;52.544;13.374;2023-08-17T10:00:27;24.40;99.90
2130;DHT22;1071;52.544;13.374;2023-08-17T10:02:55;24.40;99.90
2130;DHT22;1071;52.544;13.374;2023-08-17T10:05:26;24.50;99.90
2130;DHT22;1071;52.544;13.374;2023-08-17T10:07:57;24.70;99.90
2130;DHT22;1071;52.544;13.374;2023-08-17T10:10:27;24.80;99.90
2130;DHT22;1071;52.544;13.374;2023-08-17T10:13:01;24.70;99.90
2130;DHT22;1071;52.544;13.374;2023-08-17T10:15:34;24.70;99.90
2130;DHT22;1071;52.544;13.374;2023-08-17T10:18:09;24.70;99.90
2130;DHT22;1071;52.544;13.374;2023-08-17T10:20:54;24.70;99.90
2130;DHT22;1071;52.544;13.374;2023-08-17T10:23:28;24.70;99.90
2130;DHT22;1071;52.544;13.374;2023-08-17T10:25:59;24.60;99.90
2130;DHT22;1071;52.544;13.374;2023-08-17T10:28:27;24.60;99.90
2130;DHT22;1071;52.544;13.374;2023-08-17T10:30:54;24.60;99.90
2130;DHT22;1071;52.544;13.374;2023-08-17T10:33:22;24.60;99.90
2130;DHT22;1071;52.544;13.374;2023-08-17T10:35:49;24.60;99.90
2130;DHT22;1071;52.544;13.374;2023-08-17T10:38:16;24.50;99.90
2130;DHT22;1071;52.544;13.374;2023-08-17T10:40:45;24.50;99.90
2130;DHT22;1071;52.544;13.374;2023-08-17T10:43:32;24.60;99.90
2130;DHT22;1071;52.544;13.374;2023-08-17T10:46:15;24.60;99.90
2130;DHT22;1071;52.544;13.374;2023-08-17T10:48:44;24.70;99.90
2130;DHT22;1071;52.544;13.374;2023-08-17T10:51:11;24.80;99.90
2130;DHT22;1071;52.544;13.374;2023-08-17T10:53:40;24.90;99.90
2130;DHT22;1071;52.544;13.374;2023-08-17T10:56:13;24.90;99.90
2130;DHT22;1071;52.544;13.374;2023-08-17T10:58:42;25.00;99.90
2130;DHT22;1071;52.544;13.374;2023-08-17T11:01:12;25.10;99.90
2130;DHT22;1071;52.544;13.374;2023-08-17T11:03:47;25.10;99.90
2130;DHT22;1071;52.544;13.374;2023-08-17T11:06:35;25.10;99.90
2130;DHT22;1071;52.544;13.374;2023-08-17T11:09:06;25.20;99.90
2130;DHT22;1071;52.544;13.374;2023-08-17T11:11:35;25.20;99.90
2130;DHT22;1071;52.544;13.374;2023-08-17T11:14:02;25.30;99.90
2130;DHT22;1071;52.544;13.374;2023-08-17T11:16:29;25.40;99.90
2130;DHT22;1071;52.544;13.374;2023-08-17T11:19:00;25.40;99.90
2130;DHT22;1071;52.544;13.374;2023-08-17T11:21:30;25.40;99.90
2130;DHT22;1071;52.544;13.374;2023-08-17T11:23:57;25.40;99.90
2130;DHT22;1071;52.544;13.374;2023-08-17T11:26:25;25.40;99.90
2130;DHT22;1071;52.544;13.374;2023-08-17T11:28:54;25.40;99.90
2130;DHT22;1071;52.544;13.374;2023-08-17T11:31:21;25.40;99.90
2130;DHT22;1071;52.544;13.374;2023-08-17T11:33:49;25.40;99.90
2130;DHT22;1071;52.544;13.374;2023-08-17T11:36:16;25.40;99.90
2130;DHT22;1071;52.544;13.374;2023-08-17T11:38:43;25.50;99.90
2130;DHT22;1071;52.544;13.374;2023-08-17T11:41:12;25.60;99.90
2130;DHT22;1071;52.544;13.374;2023-08-17T11:43:40;25.60;99.90
2130;DHT22;1071;52.544;13.374;2023-08-17T11:46:08;25.70;99.90
2130;DHT22;1071;52.544;13.374;2023-08-17T11:48:36;25.80;99.90
2130;DHT22;1071;52.544;13.374;2023-08-17T11:51:03;25.80;99.90
2130;DHT22;1071;52.544;13.374;2023-08-17T11:53:34;25.90;99.90
2130;DHT22;1071;52.544;13.374;2023-08-17T11:56:01;25.90;99.90
2130;DHT22;1071;52.544;13.374;2023-08-17T11:58:40;26.00;99.90
2130;DHT22;1071;52.544;13.374;2023-08-17T12:01:10;26.00;99.90
2130;DHT22;1071;52.544;13.374;2023-08-17T12:03:38;26.00;99.90
2130;DHT22;1071;52.544;13.374;2023-08-17T12:06:06;26.10;99.90
2130;DHT22;1071;52.544;13.374;2023-08-17T12:08:34;26.20;99.90
2130;DHT22;1071;52.544;13.374;2023-08-17T12:11:04;26.20;99.90
2130;DHT22;1071;52.544;13.374;2023-08-17T12:13:32;26.20;99.90
2130;DHT22;1071;52.544;13.374;2023-08-17T12:16:00;26.30;99.90
2130;DHT22;1071;52.544;13.374;2023-08-17T12:18:30;26.30;99.90
2130;DHT22;1071;52.544;13.374;2023-08-17T12:20:58;26.40;99.90
2130;DHT22;1071;52.544;13.374;2023-08-17T12:23:26;26.40;99.90
2130;DHT22;1071;52.544;13.374;2023-08-17T12:25:56;26.30;99.90
2130;DHT22;1071;52.544;13.374;2023-08-17T12:28:25;26.40;99.90
2130;DHT22;1071;52.544;13.374;2023-08-17T12:31:02;26.50;99.90
2130;DHT22;1071;52.544;13.374;2023-08-17T12:33:31;26.50;99.90
2130;DHT22;1071;52.544;13.374;2023-08-17T12:35:58;26.60;99.90
2130;DHT22;1071;52.544;13.374;2023-08-17T12:38:27;26.60;99.90
2130;DHT22;1071;52.544;13.374;2023-08-17T12:40:55;26.60;99.90
2130;DHT22;1071;52.544;13.374;2023-08-17T12:43:26;26.70;99.90
2130;DHT22;1071;52.544;13.374;2023-08-17T12:45:53;26.70;99.90
2130;DHT22;1071;52.544;13.374;2023-08-17T12:48:20;26.70;99.90
2130;DHT22;1071;52.544;13.374;2023-08-17T12:50:48;26.70;99.90
2130;DHT22;1071;52.544;13.374;2023-08-17T12:53:15;26.70;99.90
2130;DHT22;1071;52.544;13.374;2023-08-17T12:55:42;26.70;99.90
2130;DHT22;1071;52.544;13.374;2023-08-17T12:58:09;26.70;99.90
2130;DHT22;1071;52.544;13.374;2023-08-17T13:00:36;26.70;99.90
2130;DHT22;1071;52.544;13.374;2023-08-17T13:03:04;26.70;99.90
2130;DHT22;1071;52.544;13.374;2023-08-17T13:05:32;26.70;99.90
2130;DHT22;1071;52.544;13.374;2023-08-17T13:08:01;26.70;99.90
2130;DHT22;1071;52.544;13.374;2023-08-17T13:10:28;26.70;99.90
2130;DHT22;1071;52.544;13.374;2023-08-17T13:12:55;26.80;99.90
2130;DHT22;1071;52.544;13.374;2023-08-17T13:15:24;26.80;99.90
2130;DHT22;1071;52.544;13.374;2023-08-17T13:17:51;26.80;99.90
2130;DHT22;1071;52.544;13.374;2023-08-17T13:20:18;26.90;99.90
2130;DHT22;1071;52.544;13.374;2023-08-17T13:22:45;26.90;99.90
2130;DHT22;1071;52.544;13.374;2023-08-17T13:25:19;26.90;99.90
2130;DHT22;1071;52.544;13.374;2023-08-17T13:27:46;27.00;99.90
2130;DHT22;1071;52.544;13.374;2023-08-17T13:30:13;27.00;99.90
2130;DHT22;1071;52.544;13.374;2023-08-17T13:32:40;27.00;99.90
2130;DHT22;1071;52.544;13.374;2023-08-17T13:35:07;27.10;99.90
2130;DHT22;1071;52.544;13.374;2023-08-17T13:37:36;27.10;99.90
2130;DHT22;1071;52.544;13.374;2023-08-17T13:40:04;27.20;99.90
2130;DHT22;1071;52.544;13.374;2023-08-17T13:42:33;27.20;99.90
2130;DHT22;1071;52.544;13.374;2023-08-17T13:45:01;27.20;99.90
2130;DHT22;1071;52.544;13.374;2023-08-17T13:47:28;27.00;99.90
2130;DHT22;1071;52.544;13.374;2023-08-17T13:49:55;27.00;99.90
2130;DHT22;1071;52.544;13.374;2023-08-17T13:52:22;27.00;99.90
2130;DHT22;1071;52.544;13.374;2023-08-17T13:54:49;27.00;99.90
2130;DHT22;1071;52.544;13.374;2023-08-17T13:57:19;27.00;99.90
2130;DHT22;1071;52.544;13.374;2023-08-17T13:59:51;27.00;99.90
2130;DHT22;1071;52.544;13.374;2023-08-17T14:02:18;26.90;99.90
2130;DHT22;1071;52.544;13.374;2023-08-17T14:04:46;26.90;99.90
2130;DHT22;1071;52.544;13.374;2023-08-17T14:07:12;27.00;99.90
2130;DHT22;1071;52.544;13.374;2023-08-17T14:09:39;27.00;99.90
2130;DHT22;1071;52.544;13.374;2023-08-17T14:12:07;27.00;99.90
2130;DHT22;1071;52.544;13.374;2023-08-17T14:14:34;27.00;99.90
2130;DHT22;1071;52.544;13.374;2023-08-17T14:17:03;27.00;99.90
2130;DHT22;1071;52.544;13.374;2023-08-17T14:19:30;27.00;99.90
2130;DHT22;1071;52.544;13.374;2023-08-17T14:21:57;27.00;99.90
2130;DHT22;1071;52.544;13.374;2023-08-17T14:24:29;26.90;99.90
2130;DHT22;1071;52.544;13.374;2023-08-17T14:26:56;27.00;99.90
2130;DHT22;1071;52.544;13.374;2023-08-17T14:29:23;27.00;99.90
2130;DHT22;1071;52.544;13.374;2023-08-17T14:31:50;27.10;99.90
2130;DHT22;1071;52.544;13.374;2023-08-17T14:34:18;27.10;99.90
2130;DHT22;1071;52.544;13.374;2023-08-17T14:37:04;27.10;99.90
2130;DHT22;1071;52.544;13.374;2023-08-17T14:39:32;27.10;99.90
2130;DHT22;1071;52.544;13.374;2023-08-17T14:41:59;27.00;99.90
2130;DHT22;1071;52.544;13.374;2023-08-17T14:44:32;27.00;99.90
2130;DHT22;1071;52.544;13.374;2023-08-17T14:47:02;27.10;99.90
2130;DHT22;1071;52.544;13.374;2023-08-17T14:49:35;27.00;99.90
2130;DHT22;1071;52.544;13.374;2023-08-17T14:52:14;27.10;99.90
2130;DHT22;1071;52.544;13.374;2023-08-17T14:54:45;27.00;99.90
2130;DHT22;1071;52.544;13.374;2023-08-17T14:57:13;27.10;99.90
2130;DHT22;1071;52.544;13.374;2023-08-17T14:59:40;27.20;99.90
2130;DHT22;1071;52.544;13.374;2023-08-17T15:02:07;27.20;99.90
2130;DHT22;1071;52.544;13.374;2023-08-17T15:04:37;27.20;99.90
2130;DHT22;1071;52.544;13.374;2023-08-17T15:07:04;27.20;99.90
2130;DHT22;1071;52.544;13.374;2023-08-17T15:09:36;27.30;99.90
2130;DHT22;1071;52.544;13.374;2023-08-17T15:12:03;27.20;99.90
2130;DHT22;1071;52.544;13.374;2023-08-17T15:14:35;27.20;99.90
2130;DHT22;1071;52.544;13.374;2023-08-17T15:17:02;27.20;99.90
2130;DHT22;1071;52.544;13.374;2023-08-17T15:19:29;27.20;99.90
2130;DHT22;1071;52.544;13.374;2023-08-17T15:21:57;27.20;99.90
2130;DHT22;1071;52.544;13.374;2023-08-17T15:24:24;27.20;99.90
2130;DHT22;1071;52.544;13.374;2023-08-17T15:26:51;27.20;99.90
2130;DHT22;1071;52.544;13.374;2023-08-17T15:29:18;27.20;99.90
2130;DHT22;1071;52.544;13.374;2023-08-17T15:31:45;27.30;99.90
2130;DHT22;1071;52.544;13.374;2023-08-17T15:34:12;27.30;99.90
2130;DHT22;1071;52.544;13.374;2023-08-17T15:36:39;27.30;99.90
2130;DHT22;1071;52.544;13.374;2023-08-17T15:39:07;27.30;99.90
2130;DHT22;1071;52.544;13.374;2023-08-17T15:41:34;27.30;99.90
2130;DHT22;1071;52.544;13.374;2023-08-17T15:44:01;27.30;99.90
2130;DHT22;1071;52.544;13.374;2023-08-17T15:46:28;27.30;99.90
2130;DHT22;1071;52.544;13.374;2023-08-17T15:48:57;27.30;99.90
2130;DHT22;1071;52.544;13.374;2023-08-17T15:51:25;27.30;99.90
2130;DHT22;1071;52.544;13.374;2023-08-17T15:53:53;27.30;99.90
2130;DHT22;1071;52.544;13.374;2023-08-17T15:56:21;27.30;99.90